Houston, Alabama
Current Conditions -  °F | °C
As of 6:15 PM on Thursday 18 Dec 2014 (Local Time) from KJFX Reporting Station
Overcast Overcast  
Wind Chill: 45°   Ceiling: 4000
Heat Index: 45°   Visibility: 10mi
Dew Point: 39°   Wind: 0mph
Humidity: 81%   Direction: NA
Pressure: 30.19"   Gusts: NA
Location:  34.14°N, 87.26°W
Report Text: KJFX 190015Z AUTO 00000KT 10SM OVC040 07/04 A3019 RMK A02 P-128
Loading
Personal Weather Stations






























Interactive Weather Map New forecast layout! Learn more

10-Day Weather Forecast

Advertisements
Track Severe Weather on mobile